sensor_id;sensor_type;location;lat;lon;timestamp;pressure;altitude;pressure_sealevel;temperature;humidity
15678;BME280;7939;50.814;6.368;2023-07-31T00:01:17;99569.84;;;21.45;61.90
15678;BME280;7939;50.814;6.368;2023-07-31T00:03:45;99569.97;;;21.42;61.80
15678;BME280;7939;50.814;6.368;2023-07-31T00:06:11;99576.00;;;21.42;61.50
15678;BME280;7939;50.814;6.368;2023-07-31T00:08:38;99578.63;;;21.42;61.69
15678;BME280;7939;50.814;6.368;2023-07-31T00:11:06;99576.84;;;21.43;61.82
15678;BME280;7939;50.814;6.368;2023-07-31T00:13:33;99572.44;;;21.45;61.71
15678;BME280;7939;50.814;6.368;2023-07-31T00:15:59;99569.84;;;21.45;61.64
15678;BME280;7939;50.814;6.368;2023-07-31T00:18:26;99580.25;;;21.45;61.65
15678;BME280;7939;50.814;6.368;2023-07-31T00:20:52;99572.34;;;21.46;61.34
15678;BME280;7939;50.814;6.368;2023-07-31T00:23:19;99585.44;;;21.45;61.69
15678;BME280;7939;50.814;6.368;2023-07-31T00:25:45;99566.44;;;21.43;61.76
15678;BME280;7939;50.814;6.368;2023-07-31T00:28:13;99579.41;;;21.44;61.55
15678;BME280;7939;50.814;6.368;2023-07-31T00:30:40;99584.59;;;21.44;61.62
15678;BME280;7939;50.814;6.368;2023-07-31T00:33:07;99582.88;;;21.43;61.58
15678;BME280;7939;50.814;6.368;2023-07-31T00:35:33;99582.13;;;21.41;61.62
15678;BME280;7939;50.814;6.368;2023-07-31T00:38:00;99580.47;;;21.40;61.51
15678;BME280;7939;50.814;6.368;2023-07-31T00:40:26;99585.56;;;21.42;61.51
15678;BME280;7939;50.814;6.368;2023-07-31T00:42:53;99571.94;;;21.37;61.67
15678;BME280;7939;50.814;6.368;2023-07-31T00:45:21;99583.06;;;21.40;61.53
15678;BME280;7939;50.814;6.368;2023-07-31T00:47:50;99585.66;;;21.40;61.46
15678;BME280;7939;50.814;6.368;2023-07-31T00:50:17;99583.06;;;21.40;61.55
15678;BME280;7939;50.814;6.368;2023-07-31T00:52:44;99570.91;;;21.41;61.46
15678;BME280;7939;50.814;6.368;2023-07-31T00:55:10;99562.25;;;21.40;61.41
15678;BME280;7939;50.814;6.368;2023-07-31T00:57:38;99558.72;;;21.41;61.06
15678;BME280;7939;50.814;6.368;2023-07-31T01:00:08;99559.66;;;21.40;61.59
15678;BME280;7939;50.814;6.368;2023-07-31T01:02:37;99559.66;;;21.40;61.42
15678;BME280;7939;50.814;6.368;2023-07-31T01:05:04;99555.38;;;21.39;61.65
15678;BME280;7939;50.814;6.368;2023-07-31T01:07:36;99557.13;;;21.39;61.32
15678;BME280;7939;50.814;6.368;2023-07-31T01:10:11;99556.28;;;21.38;61.52
15678;BME280;7939;50.814;6.368;2023-07-31T01:12:39;99554.66;;;21.36;61.80
15678;BME280;7939;50.814;6.368;2023-07-31T01:15:08;99549.47;;;21.36;61.72
15678;BME280;7939;50.814;6.368;2023-07-31T01:17:37;99547.72;;;21.36;61.67
15678;BME280;7939;50.814;6.368;2023-07-31T01:20:08;99537.38;;;21.35;61.85
15678;BME280;7939;50.814;6.368;2023-07-31T01:22:49;99535.63;;;21.35;61.75
15678;BME280;7939;50.814;6.368;2023-07-31T01:25:34;99533.03;;;21.35;61.79
15678;BME280;7939;50.814;6.368;2023-07-31T01:28:09;99535.72;;;21.34;62.04
15678;BME280;7939;50.814;6.368;2023-07-31T01:30:41;99531.50;;;21.31;61.91
15678;BME280;7939;50.814;6.368;2023-07-31T01:33:10;99532.34;;;21.32;61.90
15678;BME280;7939;50.814;6.368;2023-07-31T01:35:37;99533.25;;;21.31;61.92
15678;BME280;7939;50.814;6.368;2023-07-31T01:38:05;99534.16;;;21.30;62.03
15678;BME280;7939;50.814;6.368;2023-07-31T01:40:31;99530.72;;;21.29;61.91
15678;BME280;7939;50.814;6.368;2023-07-31T01:42:58;99531.63;;;21.28;62.12
15678;BME280;7939;50.814;6.368;2023-07-31T01:45:26;99534.16;;;21.30;61.85
15678;BME280;7939;50.814;6.368;2023-07-31T01:47:53;99525.53;;;21.29;62.14
15678;BME280;7939;50.814;6.368;2023-07-31T01:50:19;99528.97;;;21.30;61.98
15678;BME280;7939;50.814;6.368;2023-07-31T01:52:46;99515.97;;;21.30;61.91
15678;BME280;7939;50.814;6.368;2023-07-31T01:55:12;99524.69;;;21.28;61.84
15678;BME280;7939;50.814;6.368;2023-07-31T01:57:39;99517.78;;;21.27;61.52
15678;BME280;7939;50.814;6.368;2023-07-31T02:00:07;99517.78;;;21.27;61.85
15678;BME280;7939;50.814;6.368;2023-07-31T02:02:35;99516.88;;;21.28;61.87
15678;BME280;7939;50.814;6.368;2023-07-31T02:05:02;99512.66;;;21.26;61.94
15678;BME280;7939;50.814;6.368;2023-07-31T02:07:28;99513.50;;;21.26;61.72
15678;BME280;7939;50.814;6.368;2023-07-31T02:09:55;99506.53;;;21.27;61.75
15678;BME280;7939;50.814;6.368;2023-07-31T02:12:21;99504.03;;;21.25;61.75
15678;BME280;7939;50.814;6.368;2023-07-31T02:14:48;99494.47;;;21.26;61.83
15678;BME280;7939;50.814;6.368;2023-07-31T02:17:15;99502.25;;;21.26;61.75
15678;BME280;7939;50.814;6.368;2023-07-31T02:19:43;99497.91;;;21.26;61.83
15678;BME280;7939;50.814;6.368;2023-07-31T02:22:09;99498.00;;;21.25;61.91
15678;BME280;7939;50.814;6.368;2023-07-31T02:24:36;99492.78;;;21.25;61.48
15678;BME280;7939;50.814;6.368;2023-07-31T02:27:03;99497.91;;;21.26;61.99
15678;BME280;7939;50.814;6.368;2023-07-31T02:29:30;99490.19;;;21.25;61.90
15678;BME280;7939;50.814;6.368;2023-07-31T02:31:56;99482.44;;;21.23;62.01
15678;BME280;7939;50.814;6.368;2023-07-31T02:34:23;99488.44;;;21.25;61.79
15678;BME280;7939;50.814;6.368;2023-07-31T02:36:50;99481.47;;;21.26;61.82
15678;BME280;7939;50.814;6.368;2023-07-31T02:39:17;99484.06;;;21.26;61.89
15678;BME280;7939;50.814;6.368;2023-07-31T02:41:44;99476.28;;;21.26;61.81
15678;BME280;7939;50.814;6.368;2023-07-31T02:44:10;99484.06;;;21.26;61.86
15678;BME280;7939;50.814;6.368;2023-07-31T02:46:39;99478.03;;;21.25;61.88
15678;BME280;7939;50.814;6.368;2023-07-31T02:49:06;99482.41;;;21.25;61.92
15678;BME280;7939;50.814;6.368;2023-07-31T02:51:33;99478.03;;;21.25;61.93
15678;BME280;7939;50.814;6.368;2023-07-31T02:54:01;99474.59;;;21.25;61.87
15678;BME280;7939;50.814;6.368;2023-07-31T02:56:27;99479.00;;;21.23;61.79
15678;BME280;7939;50.814;6.368;2023-07-31T02:58:54;99478.09;;;21.24;61.92
15678;BME280;7939;50.814;6.368;2023-07-31T03:01:20;99470.28;;;21.24;61.90
15678;BME280;7939;50.814;6.368;2023-07-31T03:03:47;99468.63;;;21.23;61.70
15678;BME280;7939;50.814;6.368;2023-07-31T03:06:13;99464.19;;;21.25;61.71
15678;BME280;7939;50.814;6.368;2023-07-31T03:08:40;99461.59;;;21.25;61.62
15678;BME280;7939;50.814;6.368;2023-07-31T03:11:08;99460.72;;;21.24;61.63
15678;BME280;7939;50.814;6.368;2023-07-31T03:13:35;99459.84;;;21.25;61.86
15678;BME280;7939;50.814;6.368;2023-07-31T03:16:01;99457.28;;;21.24;61.65
15678;BME280;7939;50.814;6.368;2023-07-31T03:18:28;99461.59;;;21.25;61.80
15678;BME280;7939;50.814;6.368;2023-07-31T03:20:54;99458.13;;;21.24;61.79
15678;BME280;7939;50.814;6.368;2023-07-31T03:23:21;99458.28;;;21.21;61.78
15678;BME280;7939;50.814;6.368;2023-07-31T03:25:57;99456.53;;;21.22;61.84
15678;BME280;7939;50.814;6.368;2023-07-31T03:28:25;99452.19;;;21.22;61.87
15678;BME280;7939;50.814;6.368;2023-07-31T03:30:52;99453.94;;;21.22;61.88
15678;BME280;7939;50.814;6.368;2023-07-31T03:33:19;99452.25;;;21.21;61.94
15678;BME280;7939;50.814;6.368;2023-07-31T03:35:46;99453.19;;;21.20;61.97
15678;BME280;7939;50.814;6.368;2023-07-31T03:38:12;99446.13;;;21.22;61.87
15678;BME280;7939;50.814;6.368;2023-07-31T03:40:39;99441.88;;;21.21;61.75
15678;BME280;7939;50.814;6.368;2023-07-31T03:43:06;99435.00;;;21.20;61.78
15678;BME280;7939;50.814;6.368;2023-07-31T03:45:34;99443.72;;;21.19;61.91
15678;BME280;7939;50.814;6.368;2023-07-31T03:48:01;99428.16;;;21.17;61.72
15678;BME280;7939;50.814;6.368;2023-07-31T03:50:27;99439.34;;;21.19;61.91
15678;BME280;7939;50.814;6.368;2023-07-31T03:52:54;99435.91;;;21.19;61.80
15678;BME280;7939;50.814;6.368;2023-07-31T03:55:21;99434.16;;;21.19;61.73
15678;BME280;7939;50.814;6.368;2023-07-31T03:57:48;99428.13;;;21.19;61.77
15678;BME280;7939;50.814;6.368;2023-07-31T04:00:14;99430.72;;;21.19;61.67
15678;BME280;7939;50.814;6.368;2023-07-31T04:02:42;99430.84;;;21.16;61.72
15678;BME280;7939;50.814;6.368;2023-07-31T04:05:09;99421.28;;;21.16;61.80
15678;BME280;7939;50.814;6.368;2023-07-31T04:07:36;99419.63;;;21.15;61.89
15678;BME280;7939;50.814;6.368;2023-07-31T04:10:03;99414.50;;;21.14;61.83
15678;BME280;7939;50.814;6.368;2023-07-31T04:12:30;99420.44;;;21.16;61.84
15678;BME280;7939;50.814;6.368;2023-07-31T04:14:56;99412.66;;;21.16;61.69
15678;BME280;7939;50.814;6.368;2023-07-31T04:17:23;99416.09;;;21.16;61.71
15678;BME280;7939;50.814;6.368;2023-07-31T04:19:51;99423.97;;;21.15;61.77
15678;BME280;7939;50.814;6.368;2023-07-31T04:22:17;99414.50;;;21.14;61.82
15678;BME280;7939;50.814;6.368;2023-07-31T04:24:44;99403.19;;;21.15;61.71
15678;BME280;7939;50.814;6.368;2023-07-31T04:27:11;99407.53;;;21.14;61.81
15678;BME280;7939;50.814;6.368;2023-07-31T04:29:38;99403.28;;;21.13;61.93
15678;BME280;7939;50.814;6.368;2023-07-31T04:32:07;99400.66;;;21.13;61.89
15678;BME280;7939;50.814;6.368;2023-07-31T04:34:34;99404.09;;;21.14;61.76
15678;BME280;7939;50.814;6.368;2023-07-31T04:37:02;99414.50;;;21.14;61.65
15678;BME280;7939;50.814;6.368;2023-07-31T04:39:29;99402.44;;;21.13;61.73
15678;BME280;7939;50.814;6.368;2023-07-31T04:41:56;99399.84;;;21.13;61.77
15678;BME280;7939;50.814;6.368;2023-07-31T04:44:22;99403.28;;;21.13;61.72
15678;BME280;7939;50.814;6.368;2023-07-31T04:46:49;99396.41;;;21.12;61.92
15678;BME280;7939;50.814;6.368;2023-07-31T04:49:15;99395.47;;;21.13;61.84
15678;BME280;7939;50.814;6.368;2023-07-31T04:51:42;99395.53;;;21.12;61.80
15678;BME280;7939;50.814;6.368;2023-07-31T04:54:10;99383.31;;;21.14;61.75
15678;BME280;7939;50.814;6.368;2023-07-31T04:56:38;99391.13;;;21.14;61.73
15678;BME280;7939;50.814;6.368;2023-07-31T04:59:04;99383.41;;;21.12;61.83
15678;BME280;7939;50.814;6.368;2023-07-31T05:01:31;99390.28;;;21.13;61.67
15678;BME280;7939;50.814;6.368;2023-07-31T05:03:57;99387.59;;;21.15;61.71
15678;BME280;7939;50.814;6.368;2023-07-31T05:06:24;99378.13;;;21.14;61.48
15678;BME280;7939;50.814;6.368;2023-07-31T05:08:51;99380.63;;;21.15;61.65
15678;BME280;7939;50.814;6.368;2023-07-31T05:11:18;99379.78;;;21.15;61.81
15678;BME280;7939;50.814;6.368;2023-07-31T05:13:45;99379.78;;;21.15;61.79
15678;BME280;7939;50.814;6.368;2023-07-31T05:16:12;99373.75;;;21.14;61.63
15678;BME280;7939;50.814;6.368;2023-07-31T05:18:38;99372.84;;;21.15;61.72
15678;BME280;7939;50.814;6.368;2023-07-31T05:21:05;99370.31;;;21.14;61.78
15678;BME280;7939;50.814;6.368;2023-07-31T05:23:32;99370.31;;;21.14;61.68
15678;BME280;7939;50.814;6.368;2023-07-31T05:26:03;99366.06;;;21.13;61.74
15678;BME280;7939;50.814;6.368;2023-07-31T05:28:31;99358.16;;;21.14;61.54
15678;BME280;7939;50.814;6.368;2023-07-31T05:30:59;99352.06;;;21.15;62.01
15678;BME280;7939;50.814;6.368;2023-07-31T05:33:26;99356.41;;;21.15;61.67
15678;BME280;7939;50.814;6.368;2023-07-31T05:35:53;99357.25;;;21.15;61.79
15678;BME280;7939;50.814;6.368;2023-07-31T05:38:19;99356.50;;;21.13;61.75
15678;BME280;7939;50.814;6.368;2023-07-31T05:40:46;99349.53;;;21.14;61.65
15678;BME280;7939;50.814;6.368;2023-07-31T05:43:13;99346.94;;;21.14;61.85
15678;BME280;7939;50.814;6.368;2023-07-31T05:45:41;99346.25;;;21.10;62.40
15678;BME280;7939;50.814;6.368;2023-07-31T05:48:08;99341.81;;;21.12;62.17
15678;BME280;7939;50.814;6.368;2023-07-31T05:50:35;99335.75;;;21.12;62.28
15678;BME280;7939;50.814;6.368;2023-07-31T05:53:02;99336.69;;;21.11;62.62
15678;BME280;7939;50.814;6.368;2023-07-31T05:55:29;99333.25;;;21.10;62.57
15678;BME280;7939;50.814;6.368;2023-07-31T05:57:55;99334.88;;;21.13;62.50
15678;BME280;7939;50.814;6.368;2023-07-31T06:00:22;99325.38;;;21.12;62.48
15678;BME280;7939;50.814;6.368;2023-07-31T06:02:50;99324.47;;;21.13;62.30
15678;BME280;7939;50.814;6.368;2023-07-31T06:05:16;99316.72;;;21.11;62.56
15678;BME280;7939;50.814;6.368;2023-07-31T06:07:43;99309.78;;;21.12;62.55
15678;BME280;7939;50.814;6.368;2023-07-31T06:10:10;99308.03;;;21.12;62.65
15678;BME280;7939;50.814;6.368;2023-07-31T06:12:36;99304.53;;;21.13;62.61
15678;BME280;7939;50.814;6.368;2023-07-31T06:15:04;99311.41;;;21.14;62.65
15678;BME280;7939;50.814;6.368;2023-07-31T06:17:31;99307.13;;;21.13;62.79
15678;BME280;7939;50.814;6.368;2023-07-31T06:19:59;99304.53;;;21.13;62.62
15678;BME280;7939;50.814;6.368;2023-07-31T06:22:26;99307.19;;;21.12;62.88
15678;BME280;7939;50.814;6.368;2023-07-31T06:24:53;99310.66;;;21.12;62.90
15678;BME280;7939;50.814;6.368;2023-07-31T06:27:19;99305.50;;;21.11;63.14
15678;BME280;7939;50.814;6.368;2023-07-31T06:29:46;99314.09;;;21.13;62.98
15678;BME280;7939;50.814;6.368;2023-07-31T06:32:13;99309.72;;;21.13;62.93
15678;BME280;7939;50.814;6.368;2023-07-31T06:34:40;99313.16;;;21.14;63.01
15678;BME280;7939;50.814;6.368;2023-07-31T06:37:07;99320.94;;;21.14;62.96
15678;BME280;7939;50.814;6.368;2023-07-31T06:39:34;99321.78;;;21.14;63.17
15678;BME280;7939;50.814;6.368;2023-07-31T06:42:01;99314.91;;;21.13;63.15
15678;BME280;7939;50.814;6.368;2023-07-31T06:44:28;99310.56;;;21.14;63.12
15678;BME280;7939;50.814;6.368;2023-07-31T06:46:54;99306.13;;;21.16;63.13
15678;BME280;7939;50.814;6.368;2023-07-31T06:49:21;99304.44;;;21.15;63.05
15678;BME280;7939;50.814;6.368;2023-07-31T06:51:48;99297.41;;;21.17;63.12
15678;BME280;7939;50.814;6.368;2023-07-31T06:54:16;99303.44;;;21.17;63.10
15678;BME280;7939;50.814;6.368;2023-07-31T06:56:43;99295.59;;;21.19;63.05
15678;BME280;7939;50.814;6.368;2023-07-31T06:59:09;99299.94;;;21.18;63.22
15678;BME280;7939;50.814;6.368;2023-07-31T07:01:36;99308.63;;;21.17;63.28
15678;BME280;7939;50.814;6.368;2023-07-31T07:04:03;99312.06;;;21.18;63.23
15678;BME280;7939;50.814;6.368;2023-07-31T07:06:29;99314.75;;;21.16;63.11
15678;BME280;7939;50.814;6.368;2023-07-31T07:08:56;99309.56;;;21.16;63.27
15678;BME280;7939;50.814;6.368;2023-07-31T07:11:24;99309.56;;;21.16;63.24
15678;BME280;7939;50.814;6.368;2023-07-31T07:13:51;99316.50;;;21.16;63.27
15678;BME280;7939;50.814;6.368;2023-07-31T07:16:18;99314.91;;;21.13;63.32
15678;BME280;7939;50.814;6.368;2023-07-31T07:18:44;99308.88;;;21.13;63.56
15678;BME280;7939;50.814;6.368;2023-07-31T07:21:11;99315.84;;;21.12;63.33
15678;BME280;7939;50.814;6.368;2023-07-31T07:23:41;99313.06;;;21.15;63.56
15678;BME280;7939;50.814;6.368;2023-07-31T07:26:07;99306.19;;;21.14;63.56
15678;BME280;7939;50.814;6.368;2023-07-31T07:28:35;99302.91;;;21.11;63.61
15678;BME280;7939;50.814;6.368;2023-07-31T07:31:02;99298.50;;;21.13;63.70
15678;BME280;7939;50.814;6.368;2023-07-31T07:33:29;99287.31;;;21.11;63.76
15678;BME280;7939;50.814;6.368;2023-07-31T07:35:55;99288.09;;;21.13;63.43
15678;BME280;7939;50.814;6.368;2023-07-31T07:38:25;99283.72;;;21.13;63.69
15678;BME280;7939;50.814;6.368;2023-07-31T07:40:52;99281.13;;;21.13;63.61
15678;BME280;7939;50.814;6.368;2023-07-31T07:43:19;99282.81;;;21.14;63.61
15678;BME280;7939;50.814;6.368;2023-07-31T07:45:47;99287.09;;;21.15;63.58
15678;BME280;7939;50.814;6.368;2023-07-31T07:48:13;99286.25;;;21.15;63.74
15678;BME280;7939;50.814;6.368;2023-07-31T07:50:42;99277.53;;;21.16;63.62
15678;BME280;7939;50.814;6.368;2023-07-31T07:53:09;99285.31;;;21.16;63.88
15678;BME280;7939;50.814;6.368;2023-07-31T07:55:36;99284.34;;;21.18;63.75
15678;BME280;7939;50.814;6.368;2023-07-31T07:58:02;99280.88;;;21.18;63.51
15678;BME280;7939;50.814;6.368;2023-07-31T08:00:29;99280.88;;;21.18;63.90
15678;BME280;7939;50.814;6.368;2023-07-31T08:02:57;99270.44;;;21.19;64.14
15678;BME280;7939;50.814;6.368;2023-07-31T08:05:24;99266.06;;;21.20;63.78
15678;BME280;7939;50.814;6.368;2023-07-31T08:07:50;99263.38;;;21.21;63.76
15678;BME280;7939;50.814;6.368;2023-07-31T08:10:17;99265.16;;;21.21;64.17
15678;BME280;7939;50.814;6.368;2023-07-31T08:12:43;99259.09;;;21.20;64.03
15678;BME280;7939;50.814;6.368;2023-07-31T08:15:10;99254.66;;;21.22;63.84
15678;BME280;7939;50.814;6.368;2023-07-31T08:17:37;99257.03;;;21.27;63.70
15678;BME280;7939;50.814;6.368;2023-07-31T08:20:06;99256.19;;;21.26;63.94
15678;BME280;7939;50.814;6.368;2023-07-31T08:22:33;99251.81;;;21.27;63.71
15678;BME280;7939;50.814;6.368;2023-07-31T08:25:00;99247.41;;;21.29;63.48
15678;BME280;7939;50.814;6.368;2023-07-31T08:27:26;99252.63;;;21.29;63.31
15678;BME280;7939;50.814;6.368;2023-07-31T08:29:53;99255.13;;;21.31;63.30
15678;BME280;7939;50.814;6.368;2023-07-31T08:32:20;99260.19;;;21.34;63.09
15678;BME280;7939;50.814;6.368;2023-07-31T08:34:46;99258.50;;;21.33;63.06
15678;BME280;7939;50.814;6.368;2023-07-31T08:37:14;99261.09;;;21.33;63.16
15678;BME280;7939;50.814;6.368;2023-07-31T08:39:41;99269.75;;;21.33;63.07
15678;BME280;7939;50.814;6.368;2023-07-31T08:42:08;99270.56;;;21.34;63.15
15678;BME280;7939;50.814;6.368;2023-07-31T08:44:36;99265.38;;;21.34;63.00
15678;BME280;7939;50.814;6.368;2023-07-31T08:47:04;99267.88;;;21.35;62.77
15678;BME280;7939;50.814;6.368;2023-07-31T08:49:31;99270.41;;;21.37;62.90
15678;BME280;7939;50.814;6.368;2023-07-31T08:51:58;99272.09;;;21.38;62.76
15678;BME280;7939;50.814;6.368;2023-07-31T08:54:27;99271.19;;;21.39;62.67
15678;BME280;7939;50.814;6.368;2023-07-31T08:56:56;99268.66;;;21.37;62.55
15678;BME280;7939;50.814;6.368;2023-07-31T08:59:26;99279.81;;;21.39;62.60
15678;BME280;7939;50.814;6.368;2023-07-31T09:01:55;99280.66;;;21.40;62.51
15678;BME280;7939;50.814;6.368;2023-07-31T09:04:24;99278.06;;;21.40;62.72
15678;BME280;7939;50.814;6.368;2023-07-31T09:06:55;99277.97;;;21.41;62.52
15678;BME280;7939;50.814;6.368;2023-07-31T09:09:23;99275.28;;;21.43;62.29
15678;BME280;7939;50.814;6.368;2023-07-31T09:11:51;99278.66;;;21.45;62.31
15678;BME280;7939;50.814;6.368;2023-07-31T09:14:19;99280.34;;;21.46;62.34
15678;BME280;7939;50.814;6.368;2023-07-31T09:16:53;99285.44;;;21.47;62.41
15678;BME280;7939;50.814;6.368;2023-07-31T09:19:27;99276.81;;;21.47;62.19
15678;BME280;7939;50.814;6.368;2023-07-31T09:21:54;99276.72;;;21.48;61.90
15678;BME280;7939;50.814;6.368;2023-07-31T09:24:27;99271.38;;;21.51;61.92
15678;BME280;7939;50.814;6.368;2023-07-31T09:26:57;99271.28;;;21.53;61.73
15678;BME280;7939;50.814;6.368;2023-07-31T09:29:25;99264.41;;;21.52;61.77
15678;BME280;7939;50.814;6.368;2023-07-31T09:31:53;99255.69;;;21.53;61.76
15678;BME280;7939;50.814;6.368;2023-07-31T09:34:28;99259.03;;;21.55;61.84
15678;BME280;7939;50.814;6.368;2023-07-31T09:36:58;99256.53;;;21.53;61.60
15678;BME280;7939;50.814;6.368;2023-07-31T09:39:27;99259.72;;;21.59;61.48
15678;BME280;7939;50.814;6.368;2023-07-31T09:41:57;99246.72;;;21.59;61.43
15678;BME280;7939;50.814;6.368;2023-07-31T09:44:37;99251.81;;;21.60;61.19
15678;BME280;7939;50.814;6.368;2023-07-31T09:47:05;99248.25;;;21.63;60.96
15678;BME280;7939;50.814;6.368;2023-07-31T09:49:31;99242.13;;;21.64;60.95
15678;BME280;7939;50.814;6.368;2023-07-31T09:51:59;99256.59;;;21.68;60.89
15678;BME280;7939;50.814;6.368;2023-07-31T09:54:25;99247.13;;;21.67;61.24
15678;BME280;7939;50.814;6.368;2023-07-31T09:56:52;99247.03;;;21.68;61.03
15678;BME280;7939;50.814;6.368;2023-07-31T09:59:22;99247.97;;;21.67;60.96
15678;BME280;7939;50.814;6.368;2023-07-31T10:01:49;99253.94;;;21.69;61.07
15678;BME280;7939;50.814;6.368;2023-07-31T10:04:17;99238.00;;;21.75;61.02
15678;BME280;7939;50.814;6.368;2023-07-31T10:06:46;99246.66;;;21.76;61.50
15678;BME280;7939;50.814;6.368;2023-07-31T10:09:15;99236.06;;;21.79;61.63
15678;BME280;7939;50.814;6.368;2023-07-31T10:11:46;99241.19;;;21.80;61.60
15678;BME280;7939;50.814;6.368;2023-07-31T10:14:17;99240.28;;;21.81;61.62
15678;BME280;7939;50.814;6.368;2023-07-31T10:16:47;99249.56;;;21.86;61.51
15678;BME280;7939;50.814;6.368;2023-07-31T10:19:14;99251.34;;;21.85;61.64
15678;BME280;7939;50.814;6.368;2023-07-31T10:21:42;99251.25;;;21.87;61.54
15678;BME280;7939;50.814;6.368;2023-07-31T10:24:08;99256.38;;;21.88;61.71
15678;BME280;7939;50.814;6.368;2023-07-31T10:26:37;99246.72;;;21.90;61.72
15678;BME280;7939;50.814;6.368;2023-07-31T10:29:05;99251.25;;;21.87;62.00
15678;BME280;7939;50.814;6.368;2023-07-31T10:31:34;99259.72;;;21.90;62.39
15678;BME280;7939;50.814;6.368;2023-07-31T10:34:03;99258.06;;;21.89;62.36
15678;BME280;7939;50.814;6.368;2023-07-31T10:36:29;99243.28;;;21.90;62.40
15678;BME280;7939;50.814;6.368;2023-07-31T10:38:56;99257.13;;;21.90;62.36
15678;BME280;7939;50.814;6.368;2023-07-31T10:41:28;99261.50;;;21.90;62.41
15678;BME280;7939;50.814;6.368;2023-07-31T10:43:57;99256.13;;;21.93;62.72
15678;BME280;7939;50.814;6.368;2023-07-31T10:46:24;99254.34;;;21.93;62.73
15678;BME280;7939;50.814;6.368;2023-07-31T10:48:57;99251.69;;;21.95;62.92
15678;BME280;7939;50.814;6.368;2023-07-31T10:51:32;99254.19;;;21.96;62.70
15678;BME280;7939;50.814;6.368;2023-07-31T10:54:10;99243.78;;;21.96;62.71
15678;BME280;7939;50.814;6.368;2023-07-31T10:56:38;99249.66;;;22.00;62.67
15678;BME280;7939;50.814;6.368;2023-07-31T10:59:05;99246.97;;;22.01;62.71
15678;BME280;7939;50.814;6.368;2023-07-31T11:01:52;99237.50;;;22.00;62.38
15678;BME280;7939;50.814;6.368;2023-07-31T11:04:23;99221.78;;;22.02;62.67
15678;BME280;7939;50.814;6.368;2023-07-31T11:06:59;99216.41;;;22.05;62.68
15678;BME280;7939;50.814;6.368;2023-07-31T11:09:30;99217.94;;;22.09;62.56
15678;BME280;7939;50.814;6.368;2023-07-31T11:11:58;99215.16;;;22.12;62.72
15678;BME280;7939;50.814;6.368;2023-07-31T11:14:25;99214.91;;;22.17;62.58
15678;BME280;7939;50.814;6.368;2023-07-31T11:16:52;99226.94;;;22.19;62.43
15678;BME280;7939;50.814;6.368;2023-07-31T11:19:22;99238.09;;;22.21;62.32
15678;BME280;7939;50.814;6.368;2023-07-31T11:21:49;99239.75;;;22.22;62.19
15678;BME280;7939;50.814;6.368;2023-07-31T11:24:18;99233.63;;;22.23;62.09
15678;BME280;7939;50.814;6.368;2023-07-31T11:26:49;99221.38;;;22.25;61.56
15678;BME280;7939;50.814;6.368;2023-07-31T11:29:15;99228.16;;;22.28;61.77
15678;BME280;7939;50.814;6.368;2023-07-31T11:31:42;99235.88;;;22.29;61.60
15678;BME280;7939;50.814;6.368;2023-07-31T11:34:09;99232.63;;;22.26;61.76
15678;BME280;7939;50.814;6.368;2023-07-31T11:36:35;99231.84;;;22.24;61.72
15678;BME280;7939;50.814;6.368;2023-07-31T11:39:04;99230.88;;;22.26;61.83
15678;BME280;7939;50.814;6.368;2023-07-31T11:41:33;99223.97;;;22.25;61.87
15678;BME280;7939;50.814;6.368;2023-07-31T11:44:00;99208.28;;;22.27;61.70
15678;BME280;7939;50.814;6.368;2023-07-31T11:46:27;99219.50;;;22.27;61.90
15678;BME280;7939;50.814;6.368;2023-07-31T11:48:59;99223.69;;;22.30;61.87
15678;BME280;7939;50.814;6.368;2023-07-31T11:51:26;99220.09;;;22.32;61.71
15678;BME280;7939;50.814;6.368;2023-07-31T11:53:56;99215.53;;;22.36;61.77
15678;BME280;7939;50.814;6.368;2023-07-31T11:56:24;99208.56;;;22.37;61.46
15678;BME280;7939;50.814;6.368;2023-07-31T11:58:54;99205.59;;;22.43;61.33
15678;BME280;7939;50.814;6.368;2023-07-31T12:01:22;99208.97;;;22.45;61.45
15678;BME280;7939;50.814;6.368;2023-07-31T12:03:50;99223.78;;;22.44;61.50
15678;BME280;7939;50.814;6.368;2023-07-31T12:06:17;99216.22;;;22.40;61.48
15678;BME280;7939;50.814;6.368;2023-07-31T12:08:46;99215.09;;;22.44;61.39
15678;BME280;7939;50.814;6.368;2023-07-31T12:11:12;99217.53;;;22.47;61.38
15678;BME280;7939;50.814;6.368;2023-07-31T12:13:40;99215.84;;;22.46;61.51
15678;BME280;7939;50.814;6.368;2023-07-31T12:16:08;99211.50;;;22.46;61.35
15678;BME280;7939;50.814;6.368;2023-07-31T12:18:36;99211.50;;;22.46;61.35
15678;BME280;7939;50.814;6.368;2023-07-31T12:21:05;99200.41;;;22.43;61.27
15678;BME280;7939;50.814;6.368;2023-07-31T12:23:33;99200.34;;;22.44;60.95
15678;BME280;7939;50.814;6.368;2023-07-31T12:26:00;99199.41;;;22.45;61.06
15678;BME280;7939;50.814;6.368;2023-07-31T12:28:27;99193.34;;;22.45;61.41
15678;BME280;7939;50.814;6.368;2023-07-31T12:30:57;99202.00;;;22.45;61.28
15678;BME280;7939;50.814;6.368;2023-07-31T12:33:30;99196.69;;;22.47;61.36
15678;BME280;7939;50.814;6.368;2023-07-31T12:35:57;99190.66;;;22.46;61.28
15678;BME280;7939;50.814;6.368;2023-07-31T12:38:24;99183.69;;;22.47;60.97
15678;BME280;7939;50.814;6.368;2023-07-31T12:40:51;99188.06;;;22.46;61.24
15678;BME280;7939;50.814;6.368;2023-07-31T12:43:17;99184.34;;;22.50;61.10
15678;BME280;7939;50.814;6.368;2023-07-31T12:45:44;99200.72;;;22.52;61.29
15678;BME280;7939;50.814;6.368;2023-07-31T12:48:12;99205.94;;;22.52;60.95
15678;BME280;7939;50.814;6.368;2023-07-31T12:50:40;99204.78;;;22.56;61.01
15678;BME280;7939;50.814;6.368;2023-07-31T12:53:07;99190.03;;;22.57;61.24
15678;BME280;7939;50.814;6.368;2023-07-31T12:55:34;99179.69;;;22.55;61.01
15678;BME280;7939;50.814;6.368;2023-07-31T12:58:02;99160.47;;;22.58;60.77
15678;BME280;7939;50.814;6.368;2023-07-31T13:00:29;99143.81;;;22.60;60.86
15678;BME280;7939;50.814;6.368;2023-07-31T13:02:56;99123.91;;;22.59;61.07
15678;BME280;7939;50.814;6.368;2023-07-31T13:05:23;99112.44;;;22.62;60.75
15678;BME280;7939;50.814;6.368;2023-07-31T13:07:51;99101.19;;;22.61;60.97
15678;BME280;7939;50.814;6.368;2023-07-31T13:10:18;99080.19;;;22.65;60.65
15678;BME280;7939;50.814;6.368;2023-07-31T13:12:44;99080.91;;;22.67;60.89